| time (UTC) | temp C | wind direction | speed KPH | gust KPH | rain 1hr cm | rain 24hr cm | rain mn cm | humidity % | barometer mb |
| 20260508044532 | 11 | 355 | 0.0 | 0.0 | 0.00 | 2.82 | 0.00 | 94 | 1014.8 |
| 20260508043033 | 11 | 355 | 0.0 | 0.0 | 0.00 | 2.82 | 0.00 | 94 | 1014.7 |
| 20260508041536 | 11 | 355 | 0.0 | 3.2 | 0.00 | 2.82 | 0.00 | 94 | 1014.8 |
| 20260508040055 | 11 | 355 | 0.0 | 3.2 | 0.00 | 2.82 | 2.82 | 94 | 1014.5 |
| 20260508034604 | 11 | 32 | 0.0 | 4.8 | 0.00 | 2.82 | 2.82 | 94 | 1014.0 |
| 20260508033020 | 11 | 38 | 0.0 | 6.4 | 0.00 | 2.82 | 2.82 | 93 | 1013.9 |
| 20260508031538 | 11 | 51 | 0.0 | 3.2 | 0.00 | 2.82 | 2.82 | 93 | 1014.0 |
| 20260508030052 | 11 | 51 | 0.0 | 0.0 | 0.00 | 2.82 | 2.82 | 93 | 1013.7 |
| 20260508024614 | 11 | 51 | 0.0 | 3.2 | 0.00 | 2.82 | 2.82 | 93 | 1013.6 |
| 20260508023055 | 11 | 51 | 0.0 | 3.2 | 0.00 | 2.82 | 2.82 | 93 | 1013.5 |
| 20260508021541 | 11 | 49 | 0.0 | 3.2 | 0.00 | 2.82 | 2.82 | 93 | 1013.4 |
| 20260508020009 | 11 | 49 | 0.0 | 1.6 | 0.00 | 2.82 | 2.82 | 93 | 1013.4 |
| 20260508014511 | 11 | 49 | 1.6 | 3.2 | 0.15 | 2.82 | 2.82 | 93 | 1013.2 |
| 20260508013010 | 11 | 49 | 1.6 | 3.2 | 0.28 | 2.82 | 2.82 | 92 | 1012.6 |
| 20260508011541 | 11 | 49 | 1.6 | 3.2 | 0.28 | 2.82 | 2.82 | 92 | 1012.5 |
| 20260508004502 | 11 | 247 | 1.6 | 4.8 | 0.13 | 2.67 | 2.67 | 92 | 1013.4 |
| 20260508003005 | 11 | 68 | 0.0 | 3.2 | 0.00 | 2.54 | 2.54 | 92 | 1012.5 |
| 20260508001514 | 11 | 129 | 4.8 | 14.5 | 0.00 | 2.54 | 2.54 | 92 | 1011.4 |
| 20260508000018 | 11 | 123 | 3.2 | 12.9 | 0.00 | 2.54 | 2.54 | 92 | 1011.5 |
| 20260507234536 | 11 | 5 | 4.8 | 12.9 | 0.00 | 2.54 | 2.54 | 92 | 1011.5 |
| 20260507233018 | 11 | 38 | 3.2 | 12.9 | 0.00 | 2.54 | 2.54 | 92 | 1011.6 |
| 20260507231523 | 11 | 72 | 3.2 | 12.9 | 0.00 | 2.54 | 2.54 | 92 | 1011.5 |
| 20260507230057 | 11 | 65 | 4.8 | 12.9 | 0.00 | 2.54 | 2.54 | 92 | 1011.3 |
| 20260507224559 | 11 | 33 | 6.4 | 16.1 | 0.00 | 2.54 | 2.54 | 93 | 1011.2 |
| 20260507223102 | 11 | 54 | 4.8 | 14.5 | 0.00 | 2.54 | 2.54 | 92 | 1011.1 |
| 20260507221600 | 11 | 80 | 6.4 | 14.5 | 0.00 | 2.54 | 2.54 | 92 | 1010.8 |
| 20260507220100 | 12 | 85 | 8.0 | 14.5 | 0.00 | 2.54 | 2.54 | 92 | 1010.7 |
| 20260507214604 | 12 | 45 | 6.4 | 16.1 | 0.00 | 2.54 | 2.54 | 92 | 1010.6 |
| 20260507213037 | 12 | 49 | 11.3 | 20.9 | 0.10 | 2.54 | 2.54 | 92 | 1010.6 |
| 20260507211545 | 12 | 34 | 4.8 | 20.9 | 0.25 | 2.54 | 2.54 | 93 | 1010.3 |
| 20260507210041 | 13 | 63 | 6.4 | 16.1 | 0.53 | 2.54 | 2.54 | 93 | 1010.0 |
| 20260507204530 | 13 | 317 | 4.8 | 9.7 | 0.58 | 2.54 | 2.54 | 93 | 1010.2 |
| 20260507203115 | 13 | 340 | 1.6 | 11.3 | 0.51 | 2.44 | 2.44 | 92 | 1009.7 |
| 20260507201632 | 14 | 42 | 3.2 | 16.1 | 0.36 | 2.29 | 2.29 | 92 | 1009.6 |
| 20260507200016 | 15 | 309 | 8.0 | 17.7 | 0.08 | 2.01 | 2.01 | 93 | 1009.8 |
| 20260507194555 | 15 | 98 | 6.4 | 19.3 | 0.03 | 1.96 | 1.96 | 92 | 1009.6 |
| 20260507193039 | 15 | 64 | 3.2 | 17.7 | 0.00 | 1.93 | 1.93 | 92 | 1009.5 |
| 20260507191524 | 16 | 84 | 3.2 | 17.7 | 0.00 | 1.93 | 1.93 | 92 | 1009.2 |
| 20260507190058 | 16 | 142 | 6.4 | 14.5 | 0.00 | 1.93 | 1.93 | 92 | 1008.8 |
| 20260507184555 | 17 | 302 | 1.6 | 14.5 | 0.00 | 1.93 | 1.93 | 91 | 1009.6 |
| 20260507183109 | 18 | 113 | 6.4 | 22.5 | 0.00 | 1.93 | 1.93 | 90 | 1008.8 |
| 20260507181532 | 21 | 219 | 0.0 | 6.4 | 0.00 | 1.93 | 1.93 | 94 | 1008.6 |
| 20260507180025 | 20 | 208 | 1.6 | 11.3 | 0.00 | 1.93 | 1.93 | 94 | 1008.9 |
| 20260507174504 | 20 | 199 | 4.8 | 11.3 | 0.00 | 1.93 | 1.93 | 94 | 1008.5 |
| 20260507173117 | 20 | 231 | 3.2 | 14.5 | 0.00 | 1.93 | 1.93 | 95 | 1008.5 |
| 20260507171547 | 20 | 205 | 1.6 | 4.8 | 0.00 | 1.93 | 1.93 | 94 | 1008.8 |
| 20260507170051 | 20 | 250 | 1.6 | 8.0 | 0.00 | 1.93 | 1.93 | 94 | 1009.4 |
| 20260507164537 | 20 | 224 | 4.8 | 9.7 | 0.00 | 1.93 | 1.93 | 94 | 1009.8 |
| 20260507163040 | 20 | 200 | 4.8 | 9.7 | 0.05 | 1.93 | 1.93 | 94 | 1009.9 |
| 20260507161511 | 20 | 208 | 3.2 | 9.7 | 0.10 | 1.93 | 1.93 | 94 | 1010.1 |
| 20260507160026 | 19 | 221 | 3.2 | 12.9 | 0.15 | 1.93 | 1.93 | 94 | 1009.9 |
| 20260507154533 | 19 | 227 | 4.8 | 9.7 | 0.28 | 1.93 | 1.93 | 94 | 1009.8 |
| 20260507153039 | 19 | 187 | 3.2 | 11.3 | 0.33 | 1.88 | 1.88 | 94 | 1010.0 |
| 20260507151511 | 19 | 120 | 1.6 | 16.1 | 0.36 | 1.83 | 1.83 | 94 | 1010.3 |
| 20260507150041 | 19 | 222 | 3.2 | 22.5 | 0.36 | 1.78 | 1.78 | 94 | 1010.6 |
| 20260507144522 | 19 | 227 | 4.8 | 14.5 | 0.25 | 1.63 | 1.63 | 94 | 1010.7 |
| 20260507143054 | 20 | 240 | 6.4 | 14.5 | 0.18 | 1.55 | 1.55 | 94 | 1010.8 |
| 20260507141558 | 20 | 196 | 0.0 | 4.8 | 0.10 | 1.45 | 1.45 | 94 | 1010.8 |
| 20260507140034 | 20 | 257 | 3.2 | 9.7 | 0.05 | 1.42 | 1.42 | 94 | 1010.8 |
| 20260507134535 | 20 | 202 | 3.2 | 6.4 | 0.00 | 1.37 | 1.37 | 93 | 1010.8 |
| 20260507133107 | 20 | 248 | 3.2 | 8.0 | 0.00 | 1.37 | 1.37 | 94 | 1010.7 |
| 20260507131546 | 20 | 236 | 6.4 | 11.3 | 0.00 | 1.37 | 1.37 | 94 | 1010.7 |
| 20260507130038 | 19 | 231 | 4.8 | 14.5 | 0.00 | 1.37 | 1.37 | 94 | 1010.5 |
| 20260507124535 | 19 | 251 | 1.6 | 16.1 | 0.00 | 1.37 | 1.37 | 94 | 1010.7 |
| 20260507123041 | 19 | 182 | 1.6 | 11.3 | 0.03 | 1.37 | 1.37 | 93 | 1011.0 |
| 20260507121543 | 19 | 252 | 1.6 | 6.4 | 0.03 | 1.37 | 1.37 | 93 | 1011.1 |
| 20260507120039 | 19 | 167 | 0.0 | 4.8 | 0.03 | 1.37 | 1.37 | 93 | 1011.2 |
| 20260507114555 | 19 | 239 | 1.6 | 11.3 | 0.05 | 1.37 | 1.37 | 93 | 1011.5 |
| 20260507113038 | 18 | 184 | 1.6 | 6.4 | 0.05 | 1.35 | 1.35 | 93 | 1011.6 |
| 20260507111537 | 18 | 234 | 1.6 | 8.0 | 0.05 | 1.35 | 1.35 | 93 | 1011.7 |
| 20260507110041 | 18 | 165 | 3.2 | 12.9 | 0.08 | 1.35 | 1.35 | 93 | 1011.5 |
| 20260507104539 | 18 | 207 | 3.2 | 12.9 | 0.05 | 1.32 | 1.32 | 92 | 1011.2 |
| 20260507103021 | 18 | 233 | 1.6 | 9.7 | 0.05 | 1.30 | 1.30 | 92 | 1011.2 |
| 20260507101603 | 18 | 226 | 1.6 | 9.7 | 0.05 | 1.30 | 1.30 | 92 | 1011.4 |
| 20260507094511 | 19 | 240 | 1.6 | 11.3 | 0.18 | 1.27 | 1.27 | 92 | 1010.9 |
| 20260507093023 | 18 | 217 | 1.6 | 9.7 | 0.25 | 1.24 | 1.24 | 92 | 1010.9 |
| 20260507091528 | 18 | 225 | 4.8 | 16.1 | 0.30 | 1.24 | 1.24 | 92 | 1011.0 |
| 20260507090043 | 18 | 220 | 4.8 | 14.5 | 0.30 | 1.22 | 1.22 | 92 | 1011.2 |
| 20260507084559 | 18 | 99 | 3.2 | 16.1 | 0.23 | 1.09 | 1.09 | 90 | 1011.6 |
| 20260507083051 | 18 | 237 | 3.2 | 9.7 | 0.15 | 0.99 | 0.99 | 90 | 1012.0 |
| 20260507081549 | 19 | 266 | 3.2 | 6.4 | 0.10 | 0.94 | 0.94 | 89 | 1011.8 |
| 20260507080053 | 18 | 141 | 0.0 | 1.6 | 0.05 | 0.89 | 0.91 | 87 | 1012.0 |
| 20260507074520 | 19 | 141 | 0.0 | 3.2 | 0.03 | 0.86 | 0.86 | 87 | 1012.2 |
| 20260507073048 | 19 | 140 | 0.0 | 4.8 | 0.00 | 0.84 | 0.84 | 87 | 1012.0 |
| 20260507071556 | 19 | 227 | 0.0 | 1.6 | 0.00 | 0.84 | 0.84 | 86 | 1012.1 |
| 20260507070106 | 19 | 227 | 0.0 | 0.0 | 0.00 | 0.84 | 0.84 | 85 | 1012.2 |
| 20260507064559 | 19 | 227 | 0.0 | 1.6 | 0.00 | 0.84 | 0.84 | 85 | 1012.5 |
| 20260507063036 | 19 | 227 | 0.0 | 3.2 | 0.03 | 0.84 | 0.84 | 85 | 1012.8 |
| 20260507061541 | 19 | 226 | 1.6 | 4.8 | 0.25 | 0.84 | 0.84 | 87 | 1013.2 |
| 20260507060038 | 19 | 219 | 0.0 | 3.2 | 0.58 | 0.84 | 0.84 | 85 | 1012.5 |
| 20260507054542 | 20 | 219 | 0.0 | 6.4 | 0.84 | 0.84 | 0.84 | 85 | 1012.6 |
| 20260507053048 | 20 | 113 | 1.6 | 6.4 | 0.81 | 0.81 | 0.81 | 84 | 1012.3 |
| 20260507051503 | 20 | 225 | 1.6 | 4.8 | 0.56 | 0.56 | 0.58 | 84 | 1014.3 |